createdAt,value
2022-08-31T00:01:31.153Z,7.97
2022-08-31T00:04:02.111Z,5.53
2022-08-31T00:06:30.418Z,6.18
2022-08-31T00:08:57.640Z,6.88
2022-08-31T00:11:30.123Z,7.63
2022-08-31T00:13:59.173Z,10.68
2022-08-31T00:16:27.754Z,6.47
2022-08-31T00:18:55.066Z,13.02
2022-08-31T00:21:24.237Z,7.15
2022-08-31T00:23:51.387Z,7.20
2022-08-31T00:26:19.011Z,7.88
2022-08-31T00:28:46.510Z,5.25
2022-08-31T00:31:13.952Z,6.88
2022-08-31T00:33:41.897Z,7.45
2022-08-31T00:36:11.084Z,4.82
2022-08-31T00:38:38.752Z,6.90
2022-08-31T00:41:06.185Z,8.43
2022-08-31T00:43:39.534Z,7.53
2022-08-31T00:46:07.335Z,6.68
2022-08-31T00:48:35.377Z,8.20
2022-08-31T00:51:02.867Z,8.20
2022-08-31T00:53:30.111Z,8.63
2022-08-31T00:55:57.352Z,9.27
2022-08-31T00:58:24.606Z,10.23
2022-08-31T01:00:51.976Z,5.95
2022-08-31T01:03:21.549Z,8.52
2022-08-31T01:05:48.674Z,9.45
2022-08-31T01:08:15.937Z,6.72
2022-08-31T01:10:44.290Z,7.45
2022-08-31T01:13:13.027Z,7.10
2022-08-31T01:15:42.195Z,8.25
2022-08-31T01:18:09.462Z,8.52
2022-08-31T01:20:48.579Z,6.35
2022-08-31T01:23:22.606Z,7.80
2022-08-31T01:25:50.499Z,7.30
2022-08-31T01:28:17.695Z,10.40
2022-08-31T01:30:45.442Z,13.68
2022-08-31T01:33:13.331Z,8.50
2022-08-31T01:35:44.118Z,8.60
2022-08-31T01:38:13.201Z,7.55
2022-08-31T01:40:46.118Z,8.88
2022-08-31T01:43:13.318Z,8.75
2022-08-31T01:45:40.486Z,6.63
2022-08-31T01:48:07.605Z,6.35
2022-08-31T01:50:35.654Z,10.30
2022-08-31T01:53:02.811Z,6.30
2022-08-31T01:55:30.220Z,7.97
2022-08-31T01:57:58.063Z,8.88
2022-08-31T02:00:25.263Z,8.27
2022-08-31T02:02:52.455Z,7.47
2022-08-31T02:05:19.661Z,10.20
2022-08-31T02:07:46.778Z,8.88
2022-08-31T02:10:14.283Z,7.80
2022-08-31T02:12:41.462Z,7.00
2022-08-31T02:15:09.061Z,7.68
2022-08-31T02:17:36.457Z,9.45
2022-08-31T02:20:05.576Z,9.20
2022-08-31T02:22:32.807Z,9.25
2022-08-31T02:25:00.015Z,11.95
2022-08-31T02:27:27.285Z,10.45
2022-08-31T02:29:55.073Z,6.82
2022-08-31T02:32:22.336Z,7.60
2022-08-31T02:34:49.564Z,10.63
2022-08-31T02:37:17.137Z,6.22
2022-08-31T02:39:44.766Z,7.63
2022-08-31T02:42:11.907Z,7.53
2022-08-31T02:44:39.117Z,13.43
2022-08-31T02:47:06.254Z,5.30
2022-08-31T02:49:33.934Z,10.10
2022-08-31T02:52:01.107Z,7.18
2022-08-31T02:54:28.339Z,6.78
2022-08-31T02:56:55.465Z,7.30
2022-08-31T02:59:22.630Z,7.32
2022-08-31T03:01:53.073Z,7.70
2022-08-31T03:04:20.253Z,9.63
2022-08-31T03:06:48.083Z,5.85
2022-08-31T03:09:15.986Z,5.97
2022-08-31T03:11:43.405Z,10.80
2022-08-31T03:14:10.579Z,6.15
2022-08-31T03:16:39.563Z,6.35
2022-08-31T03:19:07.246Z,7.65
2022-08-31T03:21:34.433Z,6.35
2022-08-31T03:24:01.639Z,5.70
2022-08-31T03:26:28.839Z,8.73
2022-08-31T03:28:56.099Z,7.20
2022-08-31T03:34:05.409Z,8.60
2022-08-31T03:36:32.542Z,8.73
2022-08-31T03:38:59.673Z,6.75
2022-08-31T03:41:27.403Z,10.85
2022-08-31T03:43:54.613Z,10.10
2022-08-31T03:46:21.998Z,7.57
2022-08-31T03:48:49.854Z,10.55
2022-08-31T03:51:18.053Z,7.75
2022-08-31T03:53:45.165Z,6.35
2022-08-31T03:56:12.345Z,8.93
2022-08-31T03:58:39.500Z,7.57
2022-08-31T04:01:06.728Z,17.40
2022-08-31T04:03:33.911Z,6.38
2022-08-31T04:06:01.100Z,8.40
2022-08-31T04:08:28.290Z,7.15
2022-08-31T04:10:55.433Z,6.28
2022-08-31T04:13:28.037Z,7.95
2022-08-31T04:16:00.823Z,8.65
2022-08-31T04:18:28.134Z,5.93
2022-08-31T04:20:55.391Z,6.43
2022-08-31T04:23:24.322Z,6.65
2022-08-31T04:25:51.622Z,6.68
2022-08-31T04:28:18.752Z,6.63
2022-08-31T04:30:46.671Z,8.02
2022-08-31T04:33:13.893Z,7.95
2022-08-31T04:35:42.042Z,6.72
2022-08-31T04:38:10.219Z,6.95
2022-08-31T04:40:39.156Z,9.25
2022-08-31T04:43:07.445Z,5.95
2022-08-31T04:45:34.716Z,6.97
2022-08-31T04:48:01.933Z,9.65
2022-08-31T04:50:29.116Z,9.80
2022-08-31T04:53:01.107Z,9.63
2022-08-31T04:55:31.109Z,8.05
2022-08-31T04:57:58.285Z,6.78
2022-08-31T05:00:25.445Z,6.95
2022-08-31T05:02:54.116Z,8.35
2022-08-31T05:05:21.414Z,6.65
2022-08-31T05:07:48.625Z,7.60
2022-08-31T05:10:30.707Z,7.50
2022-08-31T05:13:05.545Z,10.68
2022-08-31T05:15:45.864Z,7.30
2022-08-31T05:18:13.667Z,7.55
2022-08-31T05:20:41.218Z,7.82
2022-08-31T05:23:09.307Z,11.52
2022-08-31T05:25:40.314Z,10.70
2022-08-31T05:28:08.087Z,9.18
2022-08-31T05:30:35.235Z,8.18
2022-08-31T05:33:02.370Z,8.82
2022-08-31T05:35:31.259Z,8.02
2022-08-31T05:37:58.414Z,8.45
2022-08-31T05:40:25.621Z,8.60
2022-08-31T05:42:52.807Z,7.38
2022-08-31T05:45:19.921Z,6.50
2022-08-31T05:47:47.074Z,11.77
2022-08-31T05:50:14.254Z,7.82
2022-08-31T05:52:42.534Z,7.72
2022-08-31T05:55:09.738Z,7.75
2022-08-31T05:57:38.218Z,8.93
2022-08-31T06:00:05.663Z,8.98
2022-08-31T06:02:33.954Z,10.65
2022-08-31T06:05:01.168Z,8.38
2022-08-31T06:07:28.540Z,8.32
2022-08-31T06:09:55.686Z,10.65
2022-08-31T06:12:25.767Z,9.38
2022-08-31T06:14:53.627Z,7.32
2022-08-31T06:17:20.847Z,8.18
2022-08-31T06:19:48.169Z,9.85
2022-08-31T06:22:15.408Z,7.25
2022-08-31T06:24:43.096Z,9.52
2022-08-31T06:27:10.296Z,7.28
2022-08-31T06:29:37.429Z,8.65
2022-08-31T06:32:08.120Z,8.15
2022-08-31T06:34:35.882Z,9.85
2022-08-31T06:37:03.589Z,7.65
2022-08-31T06:39:31.354Z,7.00
2022-08-31T06:41:58.524Z,6.55
2022-08-31T06:44:26.210Z,9.57
2022-08-31T06:46:53.922Z,9.38
2022-08-31T06:49:21.327Z,7.80
2022-08-31T06:51:48.445Z,8.93
2022-08-31T06:54:29.058Z,7.90
2022-08-31T06:56:59.729Z,9.70
2022-08-31T06:59:29.061Z,10.95
2022-08-31T07:01:56.810Z,9.15
2022-08-31T07:04:23.974Z,7.45
2022-08-31T07:06:51.098Z,9.82
2022-08-31T07:09:18.337Z,9.05
2022-08-31T07:11:47.252Z,9.25
2022-08-31T07:14:15.889Z,7.10
2022-08-31T07:16:43.499Z,7.53
2022-08-31T07:19:11.334Z,6.97
2022-08-31T07:21:41.518Z,8.57
2022-08-31T07:24:08.796Z,7.10
2022-08-31T07:26:37.424Z,9.55
2022-08-31T07:29:06.108Z,8.38
2022-08-31T07:31:46.524Z,9.88
2022-08-31T07:34:36.067Z,9.40
2022-08-31T07:37:22.877Z,9.77
2022-08-31T07:40:08.945Z,8.02
2022-08-31T07:42:40.703Z,6.95
2022-08-31T07:45:12.093Z,8.30
2022-08-31T07:47:45.157Z,8.60
2022-08-31T07:50:13.198Z,7.50
2022-08-31T07:52:47.053Z,8.45
2022-08-31T07:55:15.554Z,9.32
2022-08-31T07:57:44.167Z,7.65
2022-08-31T08:00:18.054Z,11.98
2022-08-31T08:02:53.195Z,7.70
2022-08-31T08:05:26.905Z,7.75
2022-08-31T08:07:58.403Z,9.25
2022-08-31T08:10:29.934Z,10.93
2022-08-31T08:13:05.048Z,9.95
2022-08-31T08:15:35.744Z,8.88
2022-08-31T08:18:03.392Z,8.95
2022-08-31T08:20:38.025Z,9.38
2022-08-31T08:23:27.846Z,8.82
2022-08-31T08:25:56.003Z,9.70
2022-08-31T08:28:42.354Z,9.18
2022-08-31T08:31:17.856Z,8.13
2022-08-31T08:33:45.683Z,10.40
2022-08-31T08:36:17.005Z,9.75
2022-08-31T08:38:46.254Z,8.80
2022-08-31T08:41:19.203Z,9.13
2022-08-31T08:43:52.728Z,8.77
2022-08-31T08:46:34.291Z,8.57
2022-08-31T08:49:08.689Z,8.85
2022-08-31T08:51:38.850Z,11.55
2022-08-31T08:54:10.214Z,9.70
2022-08-31T08:56:42.037Z,9.93
2022-08-31T08:59:15.972Z,7.50
2022-08-31T09:01:47.199Z,8.50
2022-08-31T09:04:40.393Z,14.43
2022-08-31T09:09:50.831Z,8.95
2022-08-31T09:12:25.789Z,9.63
2022-08-31T09:15:15.394Z,9.77
2022-08-31T09:17:42.700Z,15.38
2022-08-31T09:20:13.130Z,10.93
2022-08-31T09:22:50.962Z,11.73
2022-08-31T09:25:20.190Z,9.82
2022-08-31T09:27:57.459Z,12.60
2022-08-31T09:30:43.640Z,15.77
2022-08-31T09:33:37.085Z,10.80
2022-08-31T09:36:17.958Z,12.32
2022-08-31T09:38:46.878Z,8.95
2022-08-31T09:41:22.494Z,13.60
2022-08-31T09:43:50.642Z,12.98
2022-08-31T09:46:28.585Z,10.88
2022-08-31T09:48:58.230Z,12.43
2022-08-31T09:51:30.249Z,9.73
2022-08-31T09:54:23.179Z,10.90
2022-08-31T09:56:55.249Z,8.73
2022-08-31T09:59:38.506Z,9.68
2022-08-31T10:02:26.926Z,8.75
2022-08-31T10:04:55.493Z,9.15
2022-08-31T10:07:28.667Z,10.93
2022-08-31T10:09:59.349Z,9.57
2022-08-31T10:12:26.631Z,9.43
2022-08-31T10:14:55.842Z,12.57
2022-08-31T10:17:32.205Z,9.23
2022-08-31T10:20:07.533Z,10.68
2022-08-31T10:22:42.482Z,8.35
2022-08-31T10:25:24.666Z,8.43
2022-08-31T10:28:06.290Z,10.07
2022-08-31T10:30:45.382Z,12.95
2022-08-31T10:33:15.436Z,8.88
2022-08-31T10:35:54.674Z,10.75
2022-08-31T10:38:24.106Z,12.70
2022-08-31T10:40:54.772Z,11.35
2022-08-31T10:43:29.177Z,9.50
2022-08-31T10:45:59.759Z,16.65
2022-08-31T10:48:27.816Z,10.27
2022-08-31T10:51:09.176Z,11.60
2022-08-31T10:53:44.078Z,12.63
2022-08-31T10:56:14.414Z,11.27
2022-08-31T10:59:04.752Z,9.43
2022-08-31T11:01:44.232Z,9.55
2022-08-31T11:04:18.558Z,10.93
2022-08-31T11:06:53.975Z,11.20
2022-08-31T11:09:26.630Z,9.93
2022-08-31T11:14:34.321Z,9.48
2022-08-31T11:17:19.118Z,9.20
2022-08-31T11:19:59.973Z,9.38
2022-08-31T11:22:40.946Z,9.05
2022-08-31T11:25:15.098Z,9.10
2022-08-31T11:27:44.550Z,10.65
2022-08-31T11:30:26.716Z,17.45
2022-08-31T11:33:03.146Z,10.02
2022-08-31T11:35:49.341Z,8.73
2022-08-31T11:38:36.160Z,9.32
2022-08-31T11:41:03.973Z,10.27
2022-08-31T11:43:34.212Z,8.63
2022-08-31T11:46:37.810Z,10.60
2022-08-31T11:49:10.829Z,9.88
2022-08-31T11:51:44.949Z,8.50
2022-08-31T11:54:13.575Z,8.77
2022-08-31T11:56:47.301Z,8.70
2022-08-31T11:59:26.717Z,10.00
2022-08-31T12:01:56.583Z,11.85
2022-08-31T12:04:46.565Z,10.43
2022-08-31T12:07:33.934Z,9.40
2022-08-31T12:10:22.062Z,9.35
2022-08-31T12:12:58.585Z,8.40
2022-08-31T12:15:34.264Z,8.90
2022-08-31T12:18:05.622Z,9.98
2022-08-31T12:21:10.422Z,9.35
2022-08-31T12:23:43.483Z,8.23
2022-08-31T12:26:16.965Z,9.48
2022-08-31T12:28:44.139Z,8.52
2022-08-31T12:31:14.503Z,9.63
2022-08-31T12:33:50.748Z,8.93
2022-08-31T12:36:19.839Z,7.90
2022-08-31T12:38:47.013Z,10.93
2022-08-31T12:41:14.645Z,7.45
2022-08-31T12:43:48.937Z,8.32
2022-08-31T12:46:22.096Z,9.38
2022-08-31T12:49:08.010Z,7.80
2022-08-31T12:51:44.500Z,10.35
2022-08-31T12:54:26.878Z,6.80
2022-08-31T12:56:54.007Z,8.15
2022-08-31T12:59:57.289Z,11.30
2022-08-31T13:02:24.634Z,7.80
2022-08-31T13:04:52.227Z,9.32
2022-08-31T13:07:19.906Z,10.70
2022-08-31T13:09:47.074Z,9.88
2022-08-31T13:12:22.851Z,6.32
2022-08-31T13:14:50.105Z,8.05
2022-08-31T13:17:18.661Z,6.07
2022-08-31T13:19:53.167Z,7.25
2022-08-31T13:22:30.699Z,7.35
2022-08-31T13:25:10.789Z,4.05
2022-08-31T13:27:39.341Z,5.30
2022-08-31T13:30:18.851Z,6.60
2022-08-31T13:32:49.679Z,4.72
2022-08-31T13:35:19.184Z,5.13
2022-08-31T13:37:52.483Z,7.30
2022-08-31T13:40:23.714Z,6.57
2022-08-31T13:42:56.889Z,4.63
2022-08-31T13:45:27.428Z,7.15
2022-08-31T13:47:57.565Z,7.10
2022-08-31T13:50:28.562Z,5.72
2022-08-31T13:53:23.025Z,6.40
2022-08-31T13:55:46.407Z,8.40
2022-08-31T13:58:30.329Z,5.85
2022-08-31T14:01:24.118Z,4.65
2022-08-31T14:03:59.601Z,5.22
2022-08-31T14:06:28.871Z,5.55
2022-08-31T14:09:03.152Z,6.13
2022-08-31T14:11:30.825Z,5.32
2022-08-31T14:14:05.105Z,6.25
2022-08-31T14:16:35.651Z,6.47
2022-08-31T14:19:03.018Z,5.15
2022-08-31T14:21:31.455Z,6.72
2022-08-31T14:24:03.001Z,6.13
2022-08-31T14:26:32.110Z,7.88
2022-08-31T14:29:02.242Z,5.65
2022-08-31T14:31:33.782Z,5.32
2022-08-31T14:34:10.136Z,7.40
2022-08-31T14:36:50.265Z,3.85
2022-08-31T14:39:17.382Z,9.38
2022-08-31T14:41:45.507Z,7.47
2022-08-31T14:44:13.498Z,5.32
2022-08-31T14:46:42.399Z,4.30
2022-08-31T14:49:10.739Z,5.60
2022-08-31T14:51:39.046Z,4.05
2022-08-31T14:54:07.474Z,4.03
2022-08-31T14:56:37.070Z,4.63
2022-08-31T14:59:05.967Z,3.10
2022-08-31T15:01:35.635Z,3.45
2022-08-31T15:04:04.819Z,3.65
2022-08-31T15:06:33.029Z,5.40
2022-08-31T15:09:05.065Z,3.90
2022-08-31T15:11:35.290Z,3.33
2022-08-31T15:14:03.033Z,4.38
2022-08-31T15:16:30.810Z,3.97
2022-08-31T15:18:58.985Z,3.65
2022-08-31T15:21:26.584Z,5.45
2022-08-31T15:23:53.711Z,3.90
2022-08-31T15:26:21.594Z,4.82
2022-08-31T15:28:52.439Z,3.75
2022-08-31T15:31:24.406Z,3.10
2022-08-31T15:33:55.163Z,5.70
2022-08-31T15:36:25.014Z,4.65
2022-08-31T15:38:57.128Z,4.35
2022-08-31T15:41:24.901Z,2.92
2022-08-31T15:43:52.079Z,6.38
2022-08-31T15:46:40.640Z,3.22
2022-08-31T15:49:09.759Z,4.47
2022-08-31T15:51:49.710Z,2.70
2022-08-31T15:54:22.719Z,5.45
2022-08-31T15:56:58.126Z,4.65
2022-08-31T15:59:25.239Z,6.93
2022-08-31T16:01:52.924Z,4.32
2022-08-31T16:04:23.611Z,3.55
2022-08-31T16:06:51.921Z,4.68
2022-08-31T16:09:21.140Z,3.20
2022-08-31T16:11:49.584Z,4.47
2022-08-31T16:14:17.350Z,3.78
2022-08-31T16:16:46.441Z,4.97
2022-08-31T16:19:33.298Z,4.75
2022-08-31T16:22:02.875Z,4.57
2022-08-31T16:24:36.983Z,7.97
2022-08-31T16:27:07.920Z,7.82
2022-08-31T16:29:36.423Z,5.43
2022-08-31T16:32:04.213Z,3.90
2022-08-31T16:34:31.544Z,4.10
2022-08-31T16:36:59.844Z,4.18
2022-08-31T16:39:28.292Z,3.80
2022-08-31T16:41:55.778Z,5.95
2022-08-31T16:44:22.879Z,3.42
2022-08-31T16:46:52.576Z,3.95
2022-08-31T16:49:35.946Z,5.25
2022-08-31T16:52:05.888Z,3.22
2022-08-31T16:54:34.004Z,7.18
2022-08-31T16:57:01.603Z,4.32
2022-08-31T16:59:29.547Z,4.22
2022-08-31T17:01:57.117Z,4.75
2022-08-31T17:04:50.390Z,6.05
2022-08-31T17:07:13.862Z,6.45
2022-08-31T17:09:41.442Z,3.83
2022-08-31T17:12:12.008Z,4.13
2022-08-31T17:14:45.576Z,6.47
2022-08-31T17:17:23.449Z,5.53
2022-08-31T17:19:52.071Z,4.93
2022-08-31T17:22:25.647Z,6.82
2022-08-31T17:24:59.290Z,4.65
2022-08-31T17:27:27.404Z,4.68
2022-08-31T17:30:00.760Z,5.70
2022-08-31T17:32:28.793Z,3.85
2022-08-31T17:34:56.144Z,5.53
2022-08-31T17:37:32.618Z,8.00
2022-08-31T17:40:00.623Z,4.00
2022-08-31T17:42:28.197Z,5.82
2022-08-31T17:44:56.376Z,5.13
2022-08-31T17:47:24.497Z,5.25
2022-08-31T17:49:52.439Z,6.93
2022-08-31T17:52:21.447Z,7.28
2022-08-31T17:54:50.722Z,4.90
2022-08-31T17:57:19.250Z,7.15
2022-08-31T17:59:51.006Z,4.90
2022-08-31T18:02:21.062Z,6.13
2022-08-31T18:04:48.852Z,6.25
2022-08-31T18:07:16.239Z,6.32
2022-08-31T18:09:45.333Z,4.22
2022-08-31T18:12:12.581Z,4.72
2022-08-31T18:14:39.989Z,6.82
2022-08-31T18:17:09.490Z,8.20
2022-08-31T18:19:37.042Z,6.72
2022-08-31T18:22:04.306Z,7.03
2022-08-31T18:24:36.299Z,5.82
2022-08-31T18:27:06.967Z,7.07
2022-08-31T18:29:34.651Z,4.82
2022-08-31T18:32:05.513Z,4.95
2022-08-31T18:34:33.949Z,5.22
2022-08-31T18:37:01.286Z,6.32
2022-08-31T18:39:51.435Z,4.60
2022-08-31T18:42:38.748Z,7.07
2022-08-31T18:45:15.368Z,5.70
2022-08-31T18:47:42.590Z,6.55
2022-08-31T18:50:10.727Z,5.63
2022-08-31T18:52:40.149Z,7.55
2022-08-31T18:55:07.698Z,4.65
2022-08-31T18:57:36.411Z,9.73
2022-08-31T19:00:16.989Z,6.15
2022-08-31T19:02:44.788Z,6.55
2022-08-31T19:05:12.970Z,9.57
2022-08-31T19:07:41.207Z,6.53
2022-08-31T19:10:12.936Z,5.10
2022-08-31T19:12:42.618Z,6.28
2022-08-31T19:15:11.023Z,6.22
2022-08-31T19:17:39.389Z,5.60
2022-08-31T19:20:10.174Z,8.20
2022-08-31T19:22:37.786Z,7.05
2022-08-31T19:25:07.026Z,6.82
2022-08-31T19:27:35.216Z,8.65
2022-08-31T19:30:05.867Z,7.40
2022-08-31T19:32:33.850Z,8.30
2022-08-31T19:35:00.970Z,5.93
2022-08-31T19:37:28.184Z,7.55
2022-08-31T19:39:55.306Z,7.47
2022-08-31T19:42:40.214Z,6.43
2022-08-31T19:45:24.911Z,8.07
2022-08-31T19:47:52.601Z,7.65
2022-08-31T19:50:19.881Z,9.95
2022-08-31T19:52:47.382Z,6.88
2022-08-31T19:55:14.506Z,9.07
2022-08-31T19:57:43.294Z,9.00
2022-08-31T20:00:12.468Z,8.23
2022-08-31T20:02:42.242Z,8.95
2022-08-31T20:05:09.750Z,8.57
2022-08-31T20:07:37.033Z,7.70
2022-08-31T20:10:05.120Z,8.70
2022-08-31T20:12:32.443Z,7.80
2022-08-31T20:14:59.656Z,6.15
2022-08-31T20:17:30.102Z,9.40
2022-08-31T20:19:59.857Z,6.47
2022-08-31T20:22:28.075Z,6.82
2022-08-31T20:25:00.734Z,6.80
2022-08-31T20:27:28.143Z,7.85
2022-08-31T20:29:57.002Z,10.77
2022-08-31T20:32:25.799Z,8.07
2022-08-31T20:34:55.919Z,12.73
2022-08-31T20:37:24.561Z,9.90
2022-08-31T20:39:52.024Z,7.93
2022-08-31T20:42:21.908Z,9.95
2022-08-31T20:44:49.185Z,9.57
2022-08-31T20:47:35.299Z,8.68
2022-08-31T20:50:07.175Z,10.52
2022-08-31T20:52:35.295Z,8.23
2022-08-31T20:55:04.098Z,10.60
2022-08-31T20:57:32.345Z,9.63
2022-08-31T21:00:03.695Z,11.88
2022-08-31T21:02:31.788Z,13.93
2022-08-31T21:05:15.305Z,11.18
2022-08-31T21:07:47.491Z,10.10
2022-08-31T21:10:14.634Z,10.88
2022-08-31T21:12:42.666Z,10.80
2022-08-31T21:15:11.338Z,10.95
2022-08-31T21:17:40.527Z,12.57
2022-08-31T21:20:08.517Z,11.90
2022-08-31T21:22:37.535Z,11.23
2022-08-31T21:25:09.821Z,10.95
2022-08-31T21:27:36.958Z,12.32
2022-08-31T21:30:05.126Z,10.48
2022-08-31T21:32:32.799Z,13.02
2022-08-31T21:35:00.070Z,10.43
2022-08-31T21:37:27.215Z,15.27
2022-08-31T21:39:57.760Z,14.50
2022-08-31T21:42:25.348Z,11.75
2022-08-31T21:44:52.605Z,10.93
2022-08-31T21:47:19.761Z,12.15
2022-08-31T21:49:49.771Z,13.20
2022-08-31T21:52:17.713Z,11.88
2022-08-31T21:54:46.351Z,13.75
2022-08-31T21:57:14.206Z,11.68
2022-08-31T21:59:41.417Z,13.82
2022-08-31T22:02:11.221Z,13.57
2022-08-31T22:04:40.174Z,13.55
2022-08-31T22:07:08.125Z,14.15
2022-08-31T22:09:36.144Z,13.27
2022-08-31T22:12:06.528Z,13.98
2022-08-31T22:14:36.073Z,13.70
2022-08-31T22:17:05.597Z,17.80
2022-08-31T22:19:36.056Z,14.32
2022-08-31T22:22:05.586Z,13.35
2022-08-31T22:24:33.925Z,17.65
2022-08-31T22:27:03.137Z,14.25
2022-08-31T22:29:31.978Z,13.80
2022-08-31T22:32:00.964Z,13.43
2022-08-31T22:34:28.269Z,13.10
2022-08-31T22:36:56.580Z,13.88
2022-08-31T22:39:25.257Z,15.35
2022-08-31T22:41:53.073Z,14.18
2022-08-31T22:44:21.420Z,15.13
2022-08-31T22:46:48.818Z,14.20
2022-08-31T22:49:16.180Z,14.27
2022-08-31T22:51:44.892Z,16.58
2022-08-31T22:54:12.077Z,13.30
2022-08-31T22:56:40.493Z,12.60
2022-08-31T22:59:10.011Z,13.15
2022-08-31T23:01:46.547Z,12.30
2022-08-31T23:04:15.844Z,12.88
2022-08-31T23:06:43.698Z,12.77
2022-08-31T23:09:11.466Z,13.73
2022-08-31T23:11:39.339Z,14.52
2022-08-31T23:14:08.592Z,16.83
2022-08-31T23:16:37.392Z,14.35
2022-08-31T23:19:12.226Z,13.00
2022-08-31T23:21:45.003Z,13.38
2022-08-31T23:26:40.768Z,17.38
2022-08-31T23:29:12.136Z,12.90
2022-08-31T23:31:40.079Z,12.95
2022-08-31T23:34:12.777Z,16.27
2022-08-31T23:39:07.914Z,17.00
2022-08-31T23:41:37.723Z,15.57
2022-08-31T23:44:08.614Z,19.35
2022-08-31T23:46:36.887Z,13.63
2022-08-31T23:49:05.647Z,14.68
2022-08-31T23:51:33.345Z,14.35
2022-08-31T23:54:01.176Z,13.32
2022-08-31T23:56:32.636Z,16.17
2022-08-31T23:59:03.413Z,16.92
